Time;durP1;ratioP1;P1;durP2;ratioP2;P2;SDS_P1;SDS_P2;PMS_P1;PMS_P2;Temp;Humidity;BMP_temperature;BMP_pressure;BME280_temperature;BME280_humidity;BME280_pressure;Samples;Min_cycle;Max_cycle;Signal;HPM_P1;HPM_P2
2024/03/03 00:00:37;;;;;;;29.00;18.80;;;;;;;;;;4975506;28;20077;-51
2024/03/03 00:03:03;;;;;;;28.95;19.48;;;;;;;;;;4988104;28;20023;-49
2024/03/03 00:05:30;;;;;;;26.75;18.83;;;;;;;;;;4974095;28;20035;-51
2024/03/03 00:07:56;;;;;;;27.15;16.95;;;;;;;;;;4974232;28;20066;-49
2024/03/03 00:10:22;;;;;;;24.98;17.50;;;;;;;;;;4974140;28;20481;-50
2024/03/03 00:12:48;;;;;;;22.52;16.58;;;;;;;;;;4973503;28;20035;-50
2024/03/03 00:15:14;;;;;;;27.70;16.95;;;;;;;;;;4985384;28;20043;-49
2024/03/03 00:17:41;;;;;;;27.57;18.03;;;;;;;;;;4987104;28;20096;-49
2024/03/03 00:20:07;;;;;;;28.00;18.42;;;;;;;;;;4972301;28;20106;-50
2024/03/03 00:22:34;;;;;;;29.20;19.40;;;;;;;;;;4971981;28;20038;-49
2024/03/03 00:25:01;;;;;;;25.50;16.88;;;;;;;;;;4973122;28;20038;-51
2024/03/03 00:27:29;;;;;;;22.20;16.48;;;;;;;;;;4971231;28;20049;-53
2024/03/03 00:29:55;;;;;;;22.35;14.80;;;;;;;;;;4984065;28;20034;-50
2024/03/03 00:32:21;;;;;;;22.73;17.27;;;;;;;;;;4979258;28;20035;-50
2024/03/03 00:34:47;;;;;;;22.10;16.23;;;;;;;;;;4989879;28;20117;-50
2024/03/03 00:37:18;;;;;;;29.40;15.48;;;;;;;;;;4975146;28;20034;-51
2024/03/03 00:39:44;;;;;;;20.77;14.82;;;;;;;;;;4991917;28;20030;-52
2024/03/03 00:42:10;;;;;;;18.92;15.35;;;;;;;;;;4991983;28;20111;-49
2024/03/03 00:44:37;;;;;;;22.60;16.02;;;;;;;;;;4978110;28;20172;-51
2024/03/03 00:47:03;;;;;;;22.07;15.70;;;;;;;;;;4987642;28;20031;-49
2024/03/03 00:49:29;;;;;;;22.53;15.07;;;;;;;;;;4992967;28;20042;-50
2024/03/03 00:51:55;;;;;;;21.20;14.90;;;;;;;;;;4973487;28;20034;-50
2024/03/03 00:54:22;;;;;;;20.35;14.20;;;;;;;;;;4992596;28;20084;-51
2024/03/03 00:56:48;;;;;;;21.13;14.53;;;;;;;;;;4974855;28;20055;-50
2024/03/03 00:59:15;;;;;;;22.15;15.82;;;;;;;;;;4974385;28;20067;-49
2024/03/03 01:01:41;;;;;;;20.50;13.97;;;;;;;;;;4976104;28;20035;-51
2024/03/03 01:04:07;;;;;;;19.23;15.30;;;;;;;;;;4973228;28;20035;-50
2024/03/03 01:06:33;;;;;;;22.33;15.40;;;;;;;;;;4988040;28;20058;-49
2024/03/03 01:09:00;;;;;;;22.90;15.50;;;;;;;;;;4989920;28;20382;-50
2024/03/03 01:11:26;;;;;;;25.03;16.07;;;;;;;;;;4991294;28;20305;-49
2024/03/03 01:13:52;;;;;;;21.57;15.13;;;;;;;;;;4992264;28;20500;-51
2024/03/03 01:16:19;;;;;;;20.50;15.52;;;;;;;;;;4985234;28;20018;-49
2024/03/03 01:18:46;;;;;;;25.08;16.73;;;;;;;;;;4989028;28;20031;-49
2024/03/03 01:21:12;;;;;;;21.02;16.15;;;;;;;;;;4971670;28;20038;-50
2024/03/03 01:23:39;;;;;;;22.80;15.10;;;;;;;;;;4972946;28;20035;-50
2024/03/03 01:26:05;;;;;;;20.95;15.55;;;;;;;;;;4983529;28;20026;-49
2024/03/03 01:28:31;;;;;;;25.23;15.63;;;;;;;;;;4992376;28;20033;-49
2024/03/03 01:30:58;;;;;;;22.57;16.93;;;;;;;;;;4988301;28;20057;-49
2024/03/03 01:33:24;;;;;;;26.85;17.40;;;;;;;;;;4976741;28;20452;-50
2024/03/03 01:35:51;;;;;;;24.20;16.20;;;;;;;;;;4981967;28;20027;-49
2024/03/03 01:38:17;;;;;;;25.65;17.60;;;;;;;;;;4971557;28;20110;-50
2024/03/03 01:40:49;;;;;;;24.53;18.40;;;;;;;;;;4972747;28;20054;-50
2024/03/03 01:43:15;;;;;;;24.70;18.30;;;;;;;;;;4971411;28;20067;-50
2024/03/03 01:45:42;;;;;;;25.20;18.55;;;;;;;;;;4975493;28;20031;-49
2024/03/03 01:48:08;;;;;;;23.25;17.38;;;;;;;;;;4973008;28;20101;-49
2024/03/03 01:50:35;;;;;;;24.47;17.23;;;;;;;;;;4972762;28;20039;-49
2024/03/03 01:53:01;;;;;;;;;;;;;;;;;;4973894;28;20082;-49
2024/03/03 01:55:27;;;;;;;27.05;17.88;;;;;;;;;;4983278;28;19917;-49
2024/03/03 01:58:00;;;;;;;24.63;18.53;;;;;;;;;;4971363;28;20046;-50
2024/03/03 02:00:27;;;;;;;25.70;18.15;;;;;;;;;;4973774;28;20117;-49
2024/03/03 02:02:53;;;;;;;25.30;19.90;;;;;;;;;;4980869;28;20034;-49
2024/03/03 02:05:20;;;;;;;27.60;18.48;;;;;;;;;;4975019;28;20026;-49
2024/03/03 02:07:46;;;;;;;29.63;19.57;;;;;;;;;;4990387;28;20045;-49
2024/03/03 02:10:15;;;;;;;24.95;16.95;;;;;;;;;;4990713;28;20055;-49
2024/03/03 02:12:45;;;;;;;25.98;17.73;;;;;;;;;;4987222;28;20066;-49
2024/03/03 02:15:12;;;;;;;23.83;17.15;;;;;;;;;;4983030;28;20034;-49
2024/03/03 02:17:38;;;;;;;25.67;17.35;;;;;;;;;;4990597;28;20058;-49
2024/03/03 02:20:08;;;;;;;26.17;18.40;;;;;;;;;;4973048;28;20054;-49
2024/03/03 02:22:36;;;;;;;28.17;18.42;;;;;;;;;;4972207;28;20039;-49
2024/03/03 02:25:02;;;;;;;29.30;20.08;;;;;;;;;;4972452;28;20035;-50
2024/03/03 02:27:29;;;;;;;24.08;17.88;;;;;;;;;;4990335;28;20033;-48
2024/03/03 02:29:55;;;;;;;27.90;18.50;;;;;;;;;;4991730;28;20022;-50
2024/03/03 02:32:21;;;;;;;26.67;18.58;;;;;;;;;;4979032;28;20041;-49
2024/03/03 02:34:47;;;;;;;26.33;18.83;;;;;;;;;;4991601;28;20027;-49
2024/03/03 02:37:14;;;;;;;27.70;18.83;;;;;;;;;;4990379;28;20035;-49
2024/03/03 02:39:40;;;;;;;30.58;19.77;;;;;;;;;;4990400;28;20344;-50
2024/03/03 02:42:06;;;;;;;30.00;19.90;;;;;;;;;;4992999;28;20034;-50
2024/03/03 02:44:33;;;;;;;28.47;19.37;;;;;;;;;;4995219;28;20030;-50
2024/03/03 02:46:59;;;;;;;;;;;;;;;;;;4990664;28;20022;-49
2024/03/03 02:49:25;;;;;;;29.77;19.10;;;;;;;;;;4993456;28;19917;-49
2024/03/03 02:51:54;;;;;;;27.55;19.33;;;;;;;;;;4993660;28;20032;-49
2024/03/03 02:54:21;;;;;;;27.00;19.83;;;;;;;;;;4993987;28;20027;-49
2024/03/03 02:56:47;;;;;;;28.95;20.05;;;;;;;;;;4984802;28;20057;-49
2024/03/03 02:59:14;;;;;;;28.90;20.13;;;;;;;;;;4975557;28;20548;-51
2024/03/03 03:01:40;;;;;;;28.65;20.58;;;;;;;;;;4986585;28;20548;-49
2024/03/03 03:04:06;;;;;;;33.13;20.35;;;;;;;;;;4991843;28;20033;-49
2024/03/03 03:06:32;;;;;;;28.80;20.08;;;;;;;;;;4985527;28;20031;-51
2024/03/03 03:08:59;;;;;;;27.83;19.80;;;;;;;;;;4976368;28;20030;-49
2024/03/03 03:11:25;;;;;;;31.58;20.17;;;;;;;;;;4976163;28;20038;-49
2024/03/03 03:13:52;;;;;;;28.50;19.65;;;;;;;;;;4973816;28;20050;-49
2024/03/03 03:16:19;;;;;;;36.67;21.50;;;;;;;;;;4983435;28;20034;-50
2024/03/03 03:18:45;;;;;;;27.10;19.23;;;;;;;;;;4992341;28;20455;-50
2024/03/03 03:21:11;;;;;;;35.47;20.80;;;;;;;;;;4977051;28;20031;-50
2024/03/03 03:23:38;;;;;;;33.03;21.00;;;;;;;;;;4992568;28;20038;-49
2024/03/03 03:26:04;;;;;;;28.90;19.90;;;;;;;;;;4992684;28;20034;-49
2024/03/03 03:28:31;;;;;;;26.40;20.03;;;;;;;;;;4980512;28;20437;-53
2024/03/03 03:30:57;;;;;;;31.45;20.67;;;;;;;;;;4974707;28;20524;-50
2024/03/03 03:33:23;;;;;;;35.30;21.92;;;;;;;;;;4990777;28;20030;-49
2024/03/03 03:35:49;;;;;;;32.22;20.70;;;;;;;;;;4982617;28;20433;-51
2024/03/03 03:38:15;;;;;;;26.95;18.75;;;;;;;;;;4974770;28;20490;-50
2024/03/03 03:40:42;;;;;;;27.55;20.02;;;;;;;;;;4974671;28;20031;-49
2024/03/03 03:43:08;;;;;;;27.85;20.40;;;;;;;;;;4988698;28;20022;-49
2024/03/03 03:45:34;;;;;;;26.60;18.50;;;;;;;;;;4989847;28;20054;-50
2024/03/03 03:48:00;;;;;;;29.48;19.02;;;;;;;;;;4974527;28;20023;-51
2024/03/03 03:50:27;;;;;;;24.57;18.43;;;;;;;;;;4977757;28;20058;-52
2024/03/03 03:52:53;;;;;;;24.60;17.92;;;;;;;;;;4981304;28;20027;-49
2024/03/03 03:55:19;;;;;;;23.75;17.42;;;;;;;;;;4974127;28;20035;-50
2024/03/03 03:57:46;;;;;;;27.83;18.90;;;;;;;;;;4974437;28;20026;-53
2024/03/03 04:00:12;;;;;;;24.50;16.88;;;;;;;;;;4975355;28;20397;-49
2024/03/03 04:02:41;;;;;;;24.38;16.63;;;;;;;;;;4984921;28;20035;-50
2024/03/03 04:05:07;;;;;;;21.48;16.73;;;;;;;;;;4974550;28;20058;-50
2024/03/03 04:07:34;;;;;;;20.80;15.93;;;;;;;;;;4987002;28;20115;-50
2024/03/03 04:10:00;;;;;;;22.87;16.03;;;;;;;;;;4992281;28;20405;-52
2024/03/03 04:12:26;;;;;;;25.10;15.80;;;;;;;;;;4992396;28;20069;-49
2024/03/03 04:14:52;;;;;;;21.50;15.25;;;;;;;;;;4991808;28;20113;-53
2024/03/03 04:17:19;;;;;;;23.55;16.27;;;;;;;;;;4975320;28;20046;-53
2024/03/03 04:19:45;;;;;;;24.50;17.42;;;;;;;;;;4975092;28;20122;-49
2024/03/03 04:22:11;;;;;;;22.85;17.30;;;;;;;;;;4990078;28;20023;-49
2024/03/03 04:24:38;;;;;;;26.20;17.40;;;;;;;;;;4993339;28;20040;-53
2024/03/03 04:27:04;;;;;;;23.73;18.02;;;;;;;;;;4991796;28;20042;-49
2024/03/03 04:29:31;;;;;;;24.08;17.30;;;;;;;;;;4993237;28;20121;-50
2024/03/03 04:31:57;;;;;;;;;;;;;;;;;;4981383;28;20113;-49
2024/03/03 04:34:27;;;;;;;30.48;18.95;;;;;;;;;;4988190;28;19913;-50
2024/03/03 04:36:53;;;;;;;28.42;19.55;;;;;;;;;;4991306;28;20507;-49
2024/03/03 04:39:19;;;;;;;27.70;18.35;;;;;;;;;;4991942;28;20030;-51
2024/03/03 04:41:47;;;;;;;29.90;20.73;;;;;;;;;;4984434;28;20433;-53
2024/03/03 04:44:13;;;;;;;34.05;20.95;;;;;;;;;;4989564;28;20389;-53
2024/03/03 04:46:40;;;;;;;26.15;20.60;;;;;;;;;;4980087;28;20030;-50
2024/03/03 04:49:06;;;;;;;29.97;20.60;;;;;;;;;;4972205;28;20033;-51
2024/03/03 04:51:32;;;;;;;32.42;23.02;;;;;;;;;;4979723;28;20046;-53
2024/03/03 04:53:59;;;;;;;31.50;22.50;;;;;;;;;;4991072;28;20121;-50
2024/03/03 04:56:28;;;;;;;37.20;24.58;;;;;;;;;;4991305;28;20030;-53
2024/03/03 04:58:54;;;;;;;40.33;25.48;;;;;;;;;;4973187;28;20035;-49
2024/03/03 05:01:21;;;;;;;39.90;26.13;;;;;;;;;;4976803;28;20493;-53
2024/03/03 05:03:47;;;;;;;55.77;28.93;;;;;;;;;;4972755;28;20478;-52
2024/03/03 05:06:13;;;;;;;47.15;28.38;;;;;;;;;;4972684;28;20035;-51
2024/03/03 05:08:39;;;;;;;43.60;28.42;;;;;;;;;;4974708;28;20037;-53
2024/03/03 05:11:06;;;;;;;39.35;26.98;;;;;;;;;;4972978;28;20034;-53
2024/03/03 05:13:33;;;;;;;44.15;27.17;;;;;;;;;;5033710;23;20074;-50
2024/03/03 05:15:59;;;;;;;43.60;29.30;;;;;;;;;;4990116;28;20038;-48
2024/03/03 05:18:25;;;;;;;42.75;29.05;;;;;;;;;;4974988;28;20089;-50
2024/03/03 05:20:52;;;;;;;41.65;28.45;;;;;;;;;;4971873;28;20066;-47
2024/03/03 05:23:18;;;;;;;41.97;29.80;;;;;;;;;;4976696;28;20078;-50
2024/03/03 05:25:45;;;;;;;45.70;28.23;;;;;;;;;;4990399;28;20546;-48
2024/03/03 05:28:11;;;;;;;45.15;28.27;;;;;;;;;;4986233;28;20050;-49
2024/03/03 05:30:40;;;;;;;41.57;28.77;;;;;;;;;;4975752;28;20076;-50
2024/03/03 05:33:07;;;;;;;45.67;30.42;;;;;;;;;;4977439;28;20057;-50
2024/03/03 05:35:33;;;;;;;50.83;33.13;;;;;;;;;;4972757;28;20035;-48
2024/03/03 05:38:00;;;;;;;42.00;26.73;;;;;;;;;;4973275;28;20034;-51
2024/03/03 05:40:27;;;;;;;43.47;28.40;;;;;;;;;;4988556;28;20122;-50
2024/03/03 05:42:53;;;;;;;43.10;29.25;;;;;;;;;;4992261;28;20037;-46
2024/03/03 05:45:19;;;;;;;47.10;30.45;;;;;;;;;;4989795;28;20041;-51
2024/03/03 05:47:46;;;;;;;45.47;29.43;;;;;;;;;;4972886;28;20026;-51
2024/03/03 05:50:12;;;;;;;44.88;29.00;;;;;;;;;;4980555;28;20018;-46
2024/03/03 05:52:38;;;;;;;43.15;29.30;;;;;;;;;;4992194;28;20085;-52
2024/03/03 05:55:04;;;;;;;43.90;28.43;;;;;;;;;;4979972;28;20119;-48
2024/03/03 05:57:31;;;;;;;43.57;28.20;;;;;;;;;;4981078;28;20038;-46
2024/03/03 05:59:57;;;;;;;50.97;30.02;;;;;;;;;;4990265;28;20262;-48
2024/03/03 06:02:23;;;;;;;47.83;30.60;;;;;;;;;;4973611;28;20143;-51
2024/03/03 06:04:50;;;;;;;50.50;29.80;;;;;;;;;;4982133;28;20118;-51
2024/03/03 06:07:16;;;;;;;47.92;29.02;;;;;;;;;;4990685;28;20037;-49
2024/03/03 06:09:42;;;;;;;45.90;28.00;;;;;;;;;;4979495;28;20030;-48
2024/03/03 06:12:08;;;;;;;41.50;28.73;;;;;;;;;;4990706;28;20026;-48
2024/03/03 06:14:35;;;;;;;43.67;28.33;;;;;;;;;;4981435;28;20317;-51
2024/03/03 06:17:01;;;;;;;43.67;28.25;;;;;;;;;;4973848;28;20101;-47
2024/03/03 06:19:27;;;;;;;48.07;29.13;;;;;;;;;;4976314;28;20023;-47
2024/03/03 06:21:53;;;;;;;43.60;26.77;;;;;;;;;;4976443;28;20486;-50
2024/03/03 06:24:20;;;;;;;41.60;27.52;;;;;;;;;;4976080;28;20145;-50
2024/03/03 06:26:46;;;;;;;43.70;26.25;;;;;;;;;;4985266;28;20507;-46
2024/03/03 06:29:14;;;;;;;44.33;27.37;;;;;;;;;;4995480;28;20022;-52
2024/03/03 06:31:44;;;;;;;41.88;27.67;;;;;;;;;;4978017;28;20369;-49
2024/03/03 06:34:11;;;;;;;43.03;27.83;;;;;;;;;;4995352;28;20042;-46
2024/03/03 06:36:37;;;;;;;45.07;28.53;;;;;;;;;;4994262;28;20066;-48
2024/03/03 06:39:04;;;;;;;40.30;25.88;;;;;;;;;;4995528;28;20057;-49
2024/03/03 06:41:30;;;;;;;45.00;25.95;;;;;;;;;;4983612;28;20497;-52
2024/03/03 06:43:57;;;;;;;35.50;26.02;;;;;;;;;;4975754;28;20097;-51
2024/03/03 06:46:23;;;;;;;37.03;26.30;;;;;;;;;;4978058;28;21187;-47
2024/03/03 06:48:49;;;;;;;44.45;26.90;;;;;;;;;;4995290;28;20763;-47
2024/03/03 06:51:16;;;;;;;42.72;26.15;;;;;;;;;;4995198;28;20030;-49
2024/03/03 06:53:42;;;;;;;38.50;25.90;;;;;;;;;;4994963;28;20407;-48
2024/03/03 06:56:14;;;;;;;36.30;25.15;;;;;;;;;;4991234;28;20264;-49
2024/03/03 06:58:41;;;;;;;34.03;25.20;;;;;;;;;;4993707;28;20029;-47
2024/03/03 07:01:07;;;;;;;36.35;25.55;;;;;;;;;;4986720;28;20393;-48
2024/03/03 07:06:19;;;;;;;36.65;23.58;;;;;;;;;;4975395;28;20075;-51
2024/03/03 07:08:45;;;;;;;33.00;22.15;;;;;;;;;;4989452;28;20105;-50
2024/03/03 07:11:11;;;;;;;35.63;23.02;;;;;;;;;;4990568;28;20057;-47
2024/03/03 07:13:37;;;;;;;33.13;23.35;;;;;;;;;;4975361;28;20062;-49
2024/03/03 07:16:04;;;;;;;31.23;22.73;;;;;;;;;;4981378;28;20090;-48
2024/03/03 07:18:30;;;;;;;30.57;22.07;;;;;;;;;;4980425;28;20058;-46
2024/03/03 07:20:56;;;;;;;37.15;22.40;;;;;;;;;;4976357;28;20023;-51
2024/03/03 07:23:22;;;;;;;30.92;20.40;;;;;;;;;;4974845;28;20077;-48
2024/03/03 07:25:48;;;;;;;32.67;21.67;;;;;;;;;;4991356;28;20038;-48
2024/03/03 07:28:15;;;;;;;33.97;20.25;;;;;;;;;;4991077;28;20049;-50
2024/03/03 07:30:41;;;;;;;30.98;21.15;;;;;;;;;;4993788;28;20030;-50
2024/03/03 07:33:08;;;;;;;28.73;19.92;;;;;;;;;;4993797;28;20026;-53
2024/03/03 07:35:35;;;;;;;33.10;21.35;;;;;;;;;;4985559;28;20039;-50
2024/03/03 07:38:01;;;;;;;31.77;20.75;;;;;;;;;;4992328;28;20162;-50
2024/03/03 07:40:33;;;;;;;32.55;21.60;;;;;;;;;;4994067;28;20052;-54
2024/03/03 07:42:59;;;;;;;33.53;22.35;;;;;;;;;;4993771;28;20113;-54
2024/03/03 07:45:25;;;;;;;34.75;23.70;;;;;;;;;;4992344;28;20052;-51
2024/03/03 07:47:52;;;;;;;33.07;21.03;;;;;;;;;;4992249;28;20023;-50
2024/03/03 07:50:18;;;;;;;26.77;19.08;;;;;;;;;;4993965;28;20025;-51
2024/03/03 07:52:44;;;;;;;28.63;20.33;;;;;;;;;;4991631;28;20412;-49
2024/03/03 07:55:10;;;;;;;27.65;19.67;;;;;;;;;;4992310;28;20066;-47
2024/03/03 07:57:36;;;;;;;34.23;22.10;;;;;;;;;;4993562;28;20034;-47
2024/03/03 08:00:06;;;;;;;32.80;20.63;;;;;;;;;;4993601;28;20101;-47
2024/03/03 08:02:38;;;;;;;24.23;17.50;;;;;;;;;;4992267;28;20038;-48
2024/03/03 08:05:05;;;;;;;30.08;22.15;;;;;;;;;;4991610;28;20066;-48
2024/03/03 08:07:31;;;;;;;35.60;22.73;;;;;;;;;;4993417;28;20065;-51
2024/03/03 08:09:57;;;;;;;32.38;21.30;;;;;;;;;;4988040;28;20085;-52
2024/03/03 08:12:23;;;;;;;35.85;21.42;;;;;;;;;;4982126;28;20802;-51
2024/03/03 08:14:50;;;;;;;34.08;22.48;;;;;;;;;;4993082;28;20058;-52
2024/03/03 08:17:16;;;;;;;32.00;20.27;;;;;;;;;;4993307;28;20053;-53
2024/03/03 08:19:43;;;;;;;27.70;18.38;;;;;;;;;;4991635;28;20072;-49
2024/03/03 08:22:09;;;;;;;19.48;15.38;;;;;;;;;;4993418;28;20456;-47
2024/03/03 08:24:35;;;;;;;22.88;16.45;;;;;;;;;;4991611;28;20030;-47
2024/03/03 08:27:01;;;;;;;20.80;13.83;;;;;;;;;;4991932;28;20036;-52
2024/03/03 08:29:28;;;;;;;23.85;14.82;;;;;;;;;;4992874;28;20400;-48
2024/03/03 08:31:54;;;;;;;18.83;14.70;;;;;;;;;;4993282;28;20474;-47
2024/03/03 08:34:20;;;;;;;24.73;15.52;;;;;;;;;;4992726;28;20031;-48
2024/03/03 08:36:46;;;;;;;19.30;13.63;;;;;;;;;;4993107;28;20026;-49
2024/03/03 08:39:13;;;;;;;18.83;13.68;;;;;;;;;;4992204;28;20523;-48
2024/03/03 08:41:43;;;;;;;19.83;14.18;;;;;;;;;;4993041;28;20492;-51
2024/03/03 08:44:09;;;;;;;19.92;15.02;;;;;;;;;;4992637;28;20497;-49
2024/03/03 08:46:36;;;;;;;22.33;14.40;;;;;;;;;;4988369;28;20034;-47
2024/03/03 08:49:02;;;;;;;20.40;14.32;;;;;;;;;;4991034;28;20089;-47
2024/03/03 08:51:28;;;;;;;20.42;13.80;;;;;;;;;;4992279;28;20370;-50
2024/03/03 08:53:54;;;;;;;23.77;15.63;;;;;;;;;;4992020;28;20030;-47
2024/03/03 08:56:20;;;;;;;19.27;14.45;;;;;;;;;;4992650;28;20163;-52
2024/03/03 08:58:47;;;;;;;20.75;16.90;;;;;;;;;;4992400;28;20045;-52
2024/03/03 09:01:14;;;;;;;24.90;15.02;;;;;;;;;;4992859;28;20109;-51
2024/03/03 09:03:41;;;;;;;23.25;16.95;;;;;;;;;;4992247;28;20034;-51
2024/03/03 09:06:07;;;;;;;23.85;16.55;;;;;;;;;;4992575;28;20034;-47
2024/03/03 09:08:33;;;;;;;20.33;14.63;;;;;;;;;;4992084;28;20026;-47
2024/03/03 09:11:02;;;;;;;17.13;13.93;;;;;;;;;;4992648;28;20065;-48
2024/03/03 09:13:28;;;;;;;21.02;14.07;;;;;;;;;;4992043;28;20042;-48
2024/03/03 09:15:54;;;;;;;21.42;15.43;;;;;;;;;;4991205;28;20403;-48
2024/03/03 09:18:21;;;;;;;17.55;13.73;;;;;;;;;;4992140;28;20685;-46
2024/03/03 09:20:47;;;;;;;17.57;12.53;;;;;;;;;;4992444;28;20026;-53
2024/03/03 09:23:13;;;;;;;16.73;11.95;;;;;;;;;;4992255;28;20409;-50
2024/03/03 09:25:39;;;;;;;14.75;11.25;;;;;;;;;;4992336;28;20038;-48
2024/03/03 09:28:06;;;;;;;18.07;11.27;;;;;;;;;;4992479;28;20121;-47
2024/03/03 09:30:33;;;;;;;20.00;12.88;;;;;;;;;;4991149;28;20034;-46
2024/03/03 09:33:00;;;;;;;21.52;11.93;;;;;;;;;;4991145;28;20112;-48
2024/03/03 09:35:26;;;;;;;16.92;11.48;;;;;;;;;;4992189;28;20053;-47
2024/03/03 09:37:52;;;;;;;16.47;12.20;;;;;;;;;;4992363;28;20050;-47
2024/03/03 09:40:19;;;;;;;16.40;11.03;;;;;;;;;;4992290;28;20287;-52
2024/03/03 09:42:46;;;;;;;15.40;10.88;;;;;;;;;;4992316;28;20034;-48
2024/03/03 09:45:14;;;;;;;14.73;10.10;;;;;;;;;;4992109;28;20035;-47
2024/03/03 09:47:41;;;;;;;15.98;10.30;;;;;;;;;;4992366;28;20100;-47
2024/03/03 09:50:12;;;;;;;14.15;10.57;;;;;;;;;;4980503;28;20035;-50
2024/03/03 09:52:41;;;;;;;18.23;9.82;;;;;;;;;;4973796;28;20121;-48
2024/03/03 09:55:08;;;;;;;18.52;11.48;;;;;;;;;;4976586;28;20097;-47
2024/03/03 09:57:36;;;;;;;15.65;10.82;;;;;;;;;;4975351;28;20035;-46
2024/03/03 10:00:03;;;;;;;13.88;9.45;;;;;;;;;;4975402;28;20109;-46
2024/03/03 10:02:40;;;;;;;17.20;11.13;;;;;;;;;;4976611;28;20113;-49
2024/03/03 10:05:07;;;;;;;15.02;9.68;;;;;;;;;;4975232;28;20050;-49
2024/03/03 10:07:40;;;;;;;16.40;10.23;;;;;;;;;;4975317;28;20038;-47
2024/03/03 10:10:08;;;;;;;16.25;10.88;;;;;;;;;;4975264;28;20047;-47
2024/03/03 10:12:35;;;;;;;16.38;9.93;;;;;;;;;;4975094;28;20030;-51
2024/03/03 10:15:01;;;;;;;12.07;9.97;;;;;;;;;;4976379;28;20505;-49
2024/03/03 10:17:28;;;;;;;17.40;10.13;;;;;;;;;;4976228;28;20258;-46
2024/03/03 10:20:08;;;;;;;14.50;9.73;;;;;;;;;;4976405;28;20038;-49
2024/03/03 10:22:34;;;;;;;12.32;9.13;;;;;;;;;;4974909;28;20027;-46
2024/03/03 10:25:15;;;;;;;12.75;10.20;;;;;;;;;;4976240;28;20038;-48
2024/03/03 10:27:41;;;;;;;13.20;9.65;;;;;;;;;;4958891;28;20086;-50
2024/03/03 10:30:09;;;;;;;11.57;7.88;;;;;;;;;;4974925;28;20046;-49
2024/03/03 10:32:38;;;;;;;18.00;10.68;;;;;;;;;;4976038;28;20042;-47
2024/03/03 10:35:04;;;;;;;11.02;7.53;;;;;;;;;;4974236;28;20486;-50
2024/03/03 10:37:30;;;;;;;9.23;7.72;;;;;;;;;;4973916;28;20043;-50
2024/03/03 10:39:57;;;;;;;17.70;7.65;;;;;;;;;;4975966;28;20482;-49
2024/03/03 10:42:24;;;;;;;13.20;7.53;;;;;;;;;;4975736;28;20027;-51
2024/03/03 10:44:51;;;;;;;10.85;7.72;;;;;;;;;;4975755;28;20035;-47
2024/03/03 10:47:17;;;;;;;12.75;8.85;;;;;;;;;;4975564;28;20027;-51
2024/03/03 10:49:43;;;;;;;12.35;8.23;;;;;;;;;;4974343;28;20508;-47
2024/03/03 10:52:10;;;;;;;14.45;8.27;;;;;;;;;;4975560;28;20035;-48
2024/03/03 10:54:38;;;;;;;8.63;5.85;;;;;;;;;;4974360;28;20106;-48
2024/03/03 10:57:05;;;;;;;12.82;5.70;;;;;;;;;;4974182;28;20118;-47
2024/03/03 10:59:34;;;;;;;;;;;;;;;;;;4975923;28;20019;-47
2024/03/03 11:02:04;;;;;;;10.07;6.00;;;;;;;;;;4975298;28;19914;-47
2024/03/03 11:04:32;;;;;;;9.80;6.63;;;;;;;;;;4975376;28;20042;-47
2024/03/03 11:06:59;;;;;;;8.90;6.10;;;;;;;;;;4974104;28;20097;-47
2024/03/03 11:09:27;;;;;;;8.38;4.65;;;;;;;;;;4975286;28;20037;-51
2024/03/03 11:12:00;;;;;;;14.38;5.80;;;;;;;;;;4975213;28;20035;-49
2024/03/03 11:14:32;;;;;;;8.25;5.78;;;;;;;;;;5015329;23;20046;-50
2024/03/03 11:17:02;;;;;;;10.77;4.97;;;;;;;;;;4994701;28;20038;-49
2024/03/03 11:19:46;;;;;;;10.43;6.15;;;;;;;;;;4994586;28;20030;-49
2024/03/03 11:22:17;;;;;;;7.32;5.07;;;;;;;;;;4994481;28;20035;-49
2024/03/03 11:24:47;;;;;;;13.55;5.60;;;;;;;;;;4993178;28;20072;-51
2024/03/03 11:27:18;;;;;;;7.93;4.93;;;;;;;;;;4993061;28;20026;-50
2024/03/03 11:29:47;;;;;;;6.63;4.32;;;;;;;;;;4976912;28;20030;-49
2024/03/03 11:32:14;;;;;;;9.43;5.22;;;;;;;;;;4993186;28;20034;-49
2024/03/03 11:34:41;;;;;;;9.77;4.65;;;;;;;;;;4994116;28;20113;-49
2024/03/03 11:37:09;;;;;;;;;;;;;;;;;;4993148;28;20033;-49
2024/03/03 11:39:35;;;;;;;11.70;4.90;;;;;;;;;;4994171;28;19910;-50
2024/03/03 11:42:19;;;;;;;10.95;5.78;;;;;;;;;;4994310;28;20034;-49
2024/03/03 11:44:52;;;;;;;18.83;5.30;;;;;;;;;;4992722;28;20034;-50
2024/03/03 11:47:19;;;;;;;7.95;4.93;;;;;;;;;;4992723;28;20037;-50
2024/03/03 11:49:45;;;;;;;11.55;5.15;;;;;;;;;;4994045;28;20041;-50
2024/03/03 11:52:12;;;;;;;9.95;4.60;;;;;;;;;;4994060;28;20084;-50
2024/03/03 11:54:39;;;;;;;7.88;4.72;;;;;;;;;;4993958;28;20038;-49
2024/03/03 11:57:05;;;;;;;;;;;;;;;;;;4982180;28;20018;-50
2024/03/03 11:59:38;;;;;;;10.32;5.18;;;;;;;;;;4993884;28;20004;-50
2024/03/03 12:02:05;;;;;;;10.65;4.15;;;;;;;;;;4988220;28;20041;-50
2024/03/03 12:04:31;;;;;;;14.32;5.63;;;;;;;;;;4991269;28;20061;-49
2024/03/03 12:06:57;;;;;;;10.33;5.70;;;;;;;;;;4979162;28;20037;-50
2024/03/03 12:09:24;;;;;;;9.98;5.57;;;;;;;;;;4972592;28;20585;-50
2024/03/03 12:11:52;;;;;;;10.33;6.77;;;;;;;;;;4984477;28;20034;-52
2024/03/03 12:14:18;;;;;;;9.80;5.18;;;;;;;;;;4986521;28;20120;-50
2024/03/03 12:16:44;;;;;;;10.75;5.95;;;;;;;;;;4983390;28;20026;-51
2024/03/03 12:19:10;;;;;;;10.70;5.47;;;;;;;;;;4978908;28;20046;-48
2024/03/03 12:21:40;;;;;;;15.57;7.17;;;;;;;;;;4980580;28;20555;-51
2024/03/03 12:24:08;;;;;;;8.88;5.70;;;;;;;;;;4981491;28;20034;-52
2024/03/03 12:26:35;;;;;;;10.70;4.68;;;;;;;;;;4976133;28;20038;-53
2024/03/03 12:29:02;;;;;;;10.95;5.03;;;;;;;;;;4979079;28;20432;-53
2024/03/03 12:31:31;;;;;;;9.25;5.30;;;;;;;;;;4980489;28;20087;-53
2024/03/03 12:34:01;;;;;;;16.17;5.40;;;;;;;;;;4970889;28;20112;-51
2024/03/03 12:36:27;;;;;;;13.65;7.25;;;;;;;;;;4986354;28;20035;-51
2024/03/03 12:38:54;;;;;;;14.95;5.80;;;;;;;;;;4972353;28;20065;-51
2024/03/03 12:41:20;;;;;;;11.33;5.17;;;;;;;;;;4974842;28;20026;-51
2024/03/03 12:43:47;;;;;;;10.83;5.23;;;;;;;;;;4983664;28;20902;-52
2024/03/03 12:46:15;;;;;;;7.82;4.30;;;;;;;;;;4972831;28;20097;-54
2024/03/03 12:48:44;;;;;;;22.02;12.55;;;;;;;;;;4972065;28;20034;-51
2024/03/03 12:51:12;;;;;;;5.30;4.60;;;;;;;;;;4999357;28;20026;-51
2024/03/03 12:53:39;;;;;;;10.50;6.13;;;;;;;;;;4991144;28;20096;-52
2024/03/03 12:56:22;;;;;;;9.80;6.30;;;;;;;;;;4990890;28;20027;-53
2024/03/03 12:58:48;;;;;;;9.10;5.10;;;;;;;;;;4987111;28;20509;-52
2024/03/03 13:01:15;;;;;;;9.05;5.40;;;;;;;;;;4980718;28;20509;-54
2024/03/03 13:03:41;;;;;;;;;;;;;;;;;;4974402;28;20030;-52
2024/03/03 13:06:11;;;;;;;10.52;4.90;;;;;;;;;;4971509;28;20452;-50
2024/03/03 13:08:37;;;;;;;7.70;4.70;;;;;;;;;;4971810;28;20037;-54
2024/03/03 13:11:04;;;;;;;7.80;3.97;;;;;;;;;;4981831;28;20373;-53
2024/03/03 13:13:30;;;;;;;8.02;4.68;;;;;;;;;;4988002;28;20045;-51
2024/03/03 13:15:56;;;;;;;10.77;4.88;;;;;;;;;;4970754;28;20029;-51
2024/03/03 13:18:22;;;;;;;9.77;5.20;;;;;;;;;;4984587;28;20030;-52
2024/03/03 13:20:49;;;;;;;11.65;5.13;;;;;;;;;;4982383;28;20109;-51
2024/03/03 13:23:19;;;;;;;11.13;4.88;;;;;;;;;;4971293;28;20035;-54
2024/03/03 13:25:46;;;;;;;12.82;5.18;;;;;;;;;;4971262;28;20478;-50
2024/03/03 13:28:17;;;;;;;10.88;4.65;;;;;;;;;;4973522;28;20027;-53
2024/03/03 13:30:59;;;;;;;14.10;6.07;;;;;;;;;;4979110;28;20034;-50
2024/03/03 13:33:26;;;;;;;11.68;6.70;;;;;;;;;;4973271;28;20038;-52
2024/03/03 13:35:53;;;;;;;10.13;4.78;;;;;;;;;;4990840;28;20358;-52
2024/03/03 13:38:19;;;;;;;6.70;4.43;;;;;;;;;;4989489;28;20034;-50
2024/03/03 13:40:45;;;;;;;8.07;4.30;;;;;;;;;;4990543;28;20134;-50
2024/03/03 13:43:11;;;;;;;8.98;4.43;;;;;;;;;;4988124;28;20031;-50
2024/03/03 13:45:37;;;;;;;10.37;5.37;;;;;;;;;;4968341;28;20041;-52
2024/03/03 13:48:14;;;;;;;8.70;4.43;;;;;;;;;;4970185;28;20473;-51
2024/03/03 13:50:41;;;;;;;9.75;5.43;;;;;;;;;;4970202;28;20568;-52
2024/03/03 13:53:08;;;;;;;10.85;6.40;;;;;;;;;;4976617;28;20022;-50
2024/03/03 13:55:34;;;;;;;8.35;4.88;;;;;;;;;;4988212;28;20035;-51
2024/03/03 13:58:01;;;;;;;7.32;4.38;;;;;;;;;;4978398;28;20050;-50
2024/03/03 14:00:31;;;;;;;8.80;4.80;;;;;;;;;;4990470;28;20564;-51
2024/03/03 14:02:58;;;;;;;15.30;5.32;;;;;;;;;;4975695;28;20047;-51
2024/03/03 14:05:25;;;;;;;12.02;5.65;;;;;;;;;;4970098;28;20023;-50
2024/03/03 14:07:52;;;;;;;12.02;6.07;;;;;;;;;;4971389;28;20066;-51
2024/03/03 14:10:19;;;;;;;10.88;6.28;;;;;;;;;;4976739;28;20053;-50
2024/03/03 14:12:45;;;;;;;8.48;5.43;;;;;;;;;;4980175;28;20049;-50
2024/03/03 14:15:12;;;;;;;10.50;6.22;;;;;;;;;;4985982;28;20096;-53
2024/03/03 14:17:39;;;;;;;16.35;5.97;;;;;;;;;;4971417;28;20030;-52
2024/03/03 14:20:11;;;;;;;11.80;6.63;;;;;;;;;;4973124;28;20026;-52
2024/03/03 14:22:38;;;;;;;9.65;5.90;;;;;;;;;;4972511;28;20039;-50
2024/03/03 14:25:05;;;;;;;8.63;5.88;;;;;;;;;;4972746;28;20043;-51